Flight Track Log - Related Links

Times and Time Zones

All times are in EDT time to prevent confusion due to time zone crossing. See the FDX1570 flight status page for this flight to view local times or setup timezone preferences in your user account.

Time Position Orientation Groundspeed Altitude Reporting Facility
EDT Latitude Longitude Course Direction KTS MPH feet Rate Location/Type
Fri 04:40:45 AM 35.0167 -89.9667 90° East 179 206 1,400  Level KMEM
Fri 04:41:51 AM 35.0167 -89.8833 90° East 249 287 3,800 2,739 Climbing KMEM
Fri 04:43:03 AM 35.0500 -89.7833 68° East 298 343 7,700 2,795 Climbing KMEM
Fri 04:44:32 AM 35.0969 -89.6286 70° East 337 388 11,300 2,295 Climbing Memphis Center
Fri 04:45:32 AM 35.1336 -89.5014 71° East 372 428 13,400 2,550 Climbing Memphis Center
Fri 04:46:32 AM 35.1744 -89.3664 70° East 408 470 16,400 2,650 Climbing Memphis Center
Fri 04:47:32 AM 35.2128 -89.2286 71° East 422 486 18,700 1,950 Climbing Memphis Center
Fri 04:48:32 AM 35.2575 -89.1033 66° East 432 497 20,300 1,900 Climbing Memphis Center
Fri 04:49:32 AM 35.3292 -88.9675 57° Northeast 456 525 22,500 2,100 Climbing Memphis Center
Fri 04:50:32 AM 35.4025 -88.8286 57° Northeast 477 549 24,500 1,644 Climbing Memphis Center
Fri 04:55:37 AM 35.8120 -88.1040 57° Northeast 516 594 32,500 1,560 Climbing FlightAware ADS-B
Fri 04:56:22 AM 35.8760 -88.0000 53° Northeast 515 593 33,600 1,350 Climbing FlightAware ADS-B
Fri 04:56:57 AM 35.9260 -87.9150 54° Northeast 517 595 34,300 1,271 Climbing FlightAware ADS-B
Fri 04:57:47 AM 35.9980 -87.7960 53° Northeast 519 597 35,400 1,200 Climbing FlightAware ADS-B
Fri 04:58:27 AM 36.0560 -87.6970 54° Northeast 521 600 36,100 1,050 Climbing FlightAware ADS-B
Fri 04:59:07 AM 36.1130 -87.6000 54° Northeast 528 608 36,800 635 Climbing FlightAware ADS-B
Fri 04:59:52 AM 36.1760 -87.4940 54° Northeast 539 620 37,000 141 Climbing FlightAware ADS-B
Fri 05:00:32 AM 36.2370 -87.3910 54° Northeast 547 629 37,000  Level FlightAware ADS-B
Fri 05:01:12 AM 36.2960 -87.2910 54° Northeast 538 619 37,000  Level FlightAware ADS-B
Fri 05:01:57 AM 36.3610 -87.1790 54° Northeast 532 612 37,000  Level FlightAware ADS-B
Fri 05:02:37 AM 36.4190 -87.0810 54° Northeast 525 604 37,000  Level FlightAware ADS-B
Fri 05:03:22 AM 36.4820 -86.9710 55° Northeast 523 602 37,000  Level FlightAware ADS-B
Fri 05:04:02 AM 36.5390 -86.8740 54° Northeast 520 598 37,000  Level FlightAware ADS-B
Fri 05:04:42 AM 36.5940 -86.7800 54° Northeast 518 596 37,000  Level FlightAware ADS-B
Fri 05:05:23 AM 36.6547 -86.6728 55° Northeast 518 596 37,000  Level FlightAware ADS-B
Fri 05:06:01 AM 36.7081 -86.5809 54° Northeast 517 595 37,000  Level FlightAware ADS-B
Fri 05:06:32 AM 36.7504 -86.5082 54° Northeast 516 594 37,000  Level FlightAware ADS-B
Fri 05:07:02 AM 36.7920 -86.4334 55° Northeast 516 594 37,000  Level FlightAware ADS-B
Fri 05:07:32 AM 36.8345 -86.3605 54° Northeast 516 594 37,000  Level FlightAware ADS-B
Fri 05:08:19 AM 36.8983 -86.2490 54° Northeast 516 594 37,000  Level FlightAware ADS-B
Fri 05:09:17 AM 36.9750 -86.1130 55° Northeast 516 594 37,000  Level FlightAware ADS-B
Fri 05:10:07 AM 37.0420 -85.9960 54° Northeast 517 595 37,000  Level FlightAware ADS-B
Fri 05:10:47 AM 37.0980 -85.8950 55° Northeast 518 596 37,000  Level FlightAware ADS-B
Fri 05:11:32 AM 37.1600 -85.7850 55° Northeast 518 596 37,000  Level FlightAware ADS-B
Fri 05:12:12 AM 37.2160 -85.6840 55° Northeast 517 595 37,000  Level FlightAware ADS-B
Fri 05:12:42 AM 37.2611 -85.6051 54° Northeast 518 596 37,000  Level FlightAware ADS-B
Fri 05:13:14 AM 37.3055 -85.5239 55° Northeast 518 596 37,000  Level FlightAware ADS-B
Fri 05:13:53 AM 37.3586 -85.4303 54° Northeast 518 596 37,000  Level FlightAware ADS-B
Fri 05:14:23 AM 37.3999 -85.3540 56° Northeast 517 595 37,000  Level FlightAware ADS-B
Fri 05:14:53 AM 37.4415 -85.2800 55° Northeast 516 594 37,000  Level FlightAware ADS-B
Fri 05:15:24 AM 37.4829 -85.2058 55° Northeast 515 593 37,000  Level FlightAware ADS-B
Fri 05:15:55 AM 37.5247 -85.1295 55° Northeast 515 593 37,000  Level FlightAware ADS-B
Fri 05:16:26 AM 37.5668 -85.0532 55° Northeast 514 592 37,000  Level FlightAware ADS-B
Fri 05:16:57 AM 37.6090 -84.9745 56° Northeast 513 590 37,000  Level FlightAware ADS-B
Fri 05:17:27 AM 37.6495 -84.9007 55° Northeast 513 590 37,000  Level FlightAware ADS-B
Fri 05:18:32 AM 37.7360 -84.7430 55° Northeast 530 610 37,000  Level FlightAware ADS-B
Fri 05:19:12 AM 37.7910 -84.6420 55° Northeast 537 618 37,000  Level FlightAware ADS-B
Fri 05:19:30 AM 37.8200 -84.5878 56° Northeast 538 619 37,000  Level FlightAware ADS-B
Fri 05:20:37 AM 37.9110 -84.4210 55° Northeast 540 621 37,000  Level FlightAware ADS-B
Fri 05:21:17 AM 37.9670 -84.3160 56° Northeast 540 621 37,000  Level FlightAware ADS-B
Fri 05:22:02 AM 38.0320 -84.1930 56° Northeast 541 623 37,000  Level FlightAware ADS-B
Fri 05:22:42 AM 38.0870 -84.0900 56° Northeast 541 623 37,000  Level FlightAware ADS-B
Fri 05:23:22 AM 38.1350 -83.9990 56° Northeast 541 623 37,000  Level FlightAware ADS-B
Fri 05:24:07 AM 38.2060 -83.8660 56° Northeast 541 623 37,000  Level FlightAware ADS-B
Fri 05:24:47 AM 38.2550 -83.7730 56° Northeast 541 623 37,000  Level FlightAware ADS-B
Fri 05:25:27 AM 38.3030 -83.6830 56° Northeast 541 623 37,000  Level FlightAware ADS-B
Fri 05:26:07 AM 38.3500 -83.5930 56° Northeast 541 623 37,000  Level FlightAware ADS-B
Fri 05:26:47 AM 38.3980 -83.5030 56° Northeast 541 623 37,000  Level FlightAware ADS-B
Fri 05:27:37 AM 38.4570 -83.3900 56° Northeast 541 623 37,000  Level FlightAware ADS-B
Fri 05:28:17 AM 38.5050 -83.3000 56° Northeast 541 623 37,000  Level FlightAware ADS-B
Fri 05:28:57 AM 38.5520 -83.2100 56° Northeast 541 623 37,000  Level FlightAware ADS-B
Fri 05:29:42 AM 38.6670 -82.9810 57° Northeast 540 621 37,000  Level FlightAware ADS-B
Fri 05:30:22 AM 38.7180 -82.8820 57° Northeast 540 621 37,000  Level FlightAware ADS-B
Fri 05:31:07 AM 38.7840 -82.7530 57° Northeast 539 620 37,000  Level FlightAware ADS-B
Fri 05:31:47 AM 38.8380 -82.6460 57° Northeast 537 618 37,000  Level FlightAware ADS-B
Fri 05:32:32 AM 38.8980 -82.5290 57° Northeast 535 616 37,000  Level FlightAware ADS-B
Fri 05:33:12 AM 38.9520 -82.4200 57° Northeast 533 613 37,000  Level FlightAware ADS-B
Fri 05:33:52 AM 39.0060 -82.3140 57° Northeast 533 613 37,000  Level FlightAware ADS-B
Fri 05:34:47 AM 39.0730 -82.1790 57° Northeast 532 612 37,000  Level FlightAware ADS-B
Fri 05:35:32 AM 39.1400 -82.0480 57° Northeast 529 609 37,000  Level FlightAware ADS-B
Fri 05:36:07 AM 39.1850 -81.9560 58° Northeast 526 605 37,000  Level FlightAware ADS-B
Fri 05:36:57 AM 39.2520 -81.8210 57° Northeast 525 604 37,000  Level FlightAware ADS-B
Fri 05:37:32 AM 39.2940 -81.7340 58° Northeast 522 601 37,000  Level FlightAware ADS-B
Fri 05:38:12 AM 39.3480 -81.6270 57° Northeast 518 596 37,000  Level FlightAware ADS-B
Fri 05:39:02 AM 39.4120 -81.4970 57° Northeast 516 594 37,000  Level FlightAware ADS-B
Fri 05:39:42 AM 39.4620 -81.3930 58° Northeast 513 590 37,000  Level FlightAware ADS-B
Fri 05:40:22 AM 39.5130 -81.2900 57° Northeast 508 585 37,000  Level FlightAware ADS-B
Fri 05:41:07 AM 39.5670 -81.1790 58° Northeast 505 581 37,000  Level FlightAware ADS-B
Fri 05:41:47 AM 39.6180 -81.0750 57° Northeast 504 580 37,000  Level FlightAware ADS-B
Fri 05:42:32 AM 39.6750 -80.9570 58° Northeast 504 580 37,000  Level FlightAware ADS-B
Fri 05:43:12 AM 39.7250 -80.8520 58° Northeast 502 578 37,000  Level FlightAware ADS-B
Fri 05:43:57 AM 39.7780 -80.7420 58° Northeast 499 574 37,000  Level FlightAware ADS-B
Fri 05:44:37 AM 39.8280 -80.6350 59° Northeast 497 572 37,000  Level FlightAware ADS-B
Fri 05:45:17 AM 39.8750 -80.5390 57° Northeast 494 568 37,000  Level FlightAware ADS-B
Fri 05:46:02 AM 39.9290 -80.4250 58° Northeast 492 566 37,000  Level FlightAware ADS-B
Fri 05:46:42 AM 39.9770 -80.3240 58° Northeast 491 565 37,000  Level FlightAware ADS-B
Fri 05:47:27 AM 40.0320 -80.2060 59° Northeast 490 564 37,000  Level FlightAware ADS-B
Fri 05:48:07 AM 40.0780 -80.1070 59° Northeast 491 565 37,000  Level FlightAware ADS-B
Fri 05:48:47 AM 40.1250 -80.0090 58° Northeast 490 564 37,000  Level FlightAware ADS-B
Fri 05:49:17 AM 40.1610 -79.9300 59° Northeast 491 565 37,000  Level FlightAware ADS-B
Fri 05:49:52 AM 40.2020 -79.8440 58° Northeast 493 567 37,000  Level FlightAware ADS-B
Fri 05:50:32 AM 40.2510 -79.7390 59° Northeast 494 568 37,000  Level FlightAware ADS-B
Fri 05:51:17 AM 40.3030 -79.6290 58° Northeast 495 570 37,000  Level FlightAware ADS-B
Fri 05:51:57 AM 40.3510 -79.5210 60° Northeast 497 572 37,000  Level FlightAware ADS-B
Fri 05:52:37 AM 40.3950 -79.4260 59° Northeast 497 572 37,000  Level FlightAware ADS-B
Fri 05:53:17 AM 40.4450 -79.3170 59° Northeast 500 575 37,000  Level FlightAware ADS-B
Fri 05:54:02 AM 40.4980 -79.1990 59° Northeast 500 575 37,000  Level FlightAware ADS-B
Fri 05:54:47 AM 40.5520 -79.0820 59° Northeast 500 575 37,000  Level FlightAware ADS-B
Fri 05:55:27 AM 40.5940 -78.9900 59° Northeast 500 575 37,000  Level FlightAware ADS-B
Fri 05:56:07 AM 40.6420 -78.8820 60° Northeast 500 575 37,000  Level FlightAware ADS-B
Fri 05:56:52 AM 40.6970 -78.7620 59° Northeast 500 575 37,000  Level FlightAware ADS-B
Fri 05:57:32 AM 40.7340 -78.6790 60° Northeast 503 579 37,000  Level FlightAware ADS-B
Fri 05:58:12 AM 40.7780 -78.5790 60° Northeast 504 580 37,000  Level FlightAware ADS-B
Fri 05:58:57 AM 40.8280 -78.4690 59° Northeast 504 580 37,000  Level FlightAware ADS-B
Fri 05:59:37 AM 40.8690 -78.3790 59° Northeast 504 580 37,000  Level FlightAware ADS-B
Fri 06:00:17 AM 40.9100 -78.2890 59° Northeast 504 580 37,000  Level FlightAware ADS-B
Fri 06:00:57 AM 40.9510 -78.1990 59° Northeast 504 580 37,000  Level FlightAware ADS-B
Fri 06:01:47 AM 41.0020 -78.0860 59° Northeast 504 580 37,000  Level FlightAware ADS-B
Fri 06:02:27 AM 41.0959 -77.8599 61° Northeast 501 577 37,000 -282 Level FlightAware ADS-B
Fri 06:03:12 AM 41.1450 -77.7460 60° Northeast 499 574 36,600 -600 Descending FlightAware ADS-B
Fri 06:03:17 AM 41.1542 -77.7247 60° Northeast 500 575 36,500 -1,050 Descending FlightAware ADS-B
Fri 06:03:52 AM 41.1910 -77.6400 60° Northeast 503 579 35,900 -1,143 Descending FlightAware ADS-B
Fri 06:04:20 AM 41.2273 -77.5561 60° Northeast 503 579 35,300 -1,164 Descending FlightAware ADS-B
Fri 06:04:59 AM 41.2727 -77.4503 60° Northeast 503 579 34,600 -1,063 Descending FlightAware ADS-B
Fri 06:05:39 AM 41.3188 -77.3438 60° Northeast 503 579 33,900 -917 Descending FlightAware ADS-B
Fri 06:06:11 AM 41.3571 -77.2535 61° Northeast 511 588 33,500 -667 Descending FlightAware ADS-B
Fri 06:06:42 AM 41.3927 -77.1691 61° Northeast 508 585 33,200 -469 Descending FlightAware ADS-B
Fri 06:07:15 AM 41.4313 -77.0796 60° Northeast 507 583 33,000 -185 Descending FlightAware ADS-B
Fri 06:07:47 AM 41.4676 -76.9933 61° Northeast 504 580 33,000  Level FlightAware ADS-B
Fri 06:08:21 AM 41.5061 -76.9014 61° Northeast 504 580 33,000  Level FlightAware ADS-B
Fri 06:08:51 AM 41.5405 -76.8201 60° Northeast 503 579 33,000  Level FlightAware ADS-B
Fri 06:09:28 AM 41.5828 -76.7201 60° Northeast 503 579 33,000 -265 Level FlightAware ADS-B
Fri 06:09:59 AM 41.6178 -76.6368 61° Northeast 496 571 32,700 -762 Descending FlightAware ADS-B
Fri 06:10:31 AM 41.6532 -76.5517 61° Northeast 494 568 32,200 -952 Descending FlightAware ADS-B
Fri 06:11:02 AM 41.6875 -76.4689 61° Northeast 494 568 31,700 -896 Descending FlightAware ADS-B
Fri 06:11:38 AM 41.7268 -76.3761 60° Northeast 489 563 31,200 -909 Descending FlightAware ADS-B
Fri 06:12:08 AM 41.7603 -76.2940 61° Northeast 489 563 30,700 -971 Descending FlightAware ADS-B
Fri 06:12:46 AM 41.8009 -76.1965 61° Northeast 487 560 30,100 -1,167 Descending FlightAware ADS-B
Fri 06:13:20 AM 41.8386 -76.1040 61° Northeast 487 560 29,300 -1,313 Descending FlightAware ADS-B
Fri 06:13:50 AM 41.8714 -76.0245 61° Northeast 489 563 28,700 -690 Descending FlightAware ADS-B
Fri 06:14:47 AM 41.9280 -75.8870 61° Northeast 489 563 28,300 -247 Descending FlightAware ADS-B
Fri 06:15:27 AM 41.9650 -75.7970 61° Northeast 489 563 28,300 -1,835 Level FlightAware ADS-B
Fri 06:16:12 AM 42.0240 -75.6500 62° Northeast 489 563 25,700 -1,906 Descending FlightAware ADS-B
Fri 06:16:52 AM 42.0640 -75.5530 61° Northeast 489 563 25,600 -1,000 Descending FlightAware ADS-B
Fri 06:17:42 AM 42.1200 -75.4110 62° Northeast 480 552 24,200 -1,412 Descending FlightAware ADS-B
Fri 06:18:17 AM 42.1550 -75.3250 61° Northeast 474 545 23,600 -2,175 Descending FlightAware ADS-B
Fri 06:19:02 AM 42.2040 -75.2010 62° Northeast 463 533 21,300 -2,220 Descending FlightAware ADS-B
Fri 06:19:57 AM 42.2560 -75.0730 61° Northeast 457 526 19,900 -884 Descending FlightAware ADS-B
Fri 06:20:37 AM 42.2910 -74.9880 61° Northeast 457 526 19,900  Level FlightAware ADS-B
Fri 06:21:17 AM 42.3260 -74.9030 61° Northeast 457 526 19,900  Level FlightAware ADS-B
Fri 06:22:07 AM 42.3690 -74.7970 61° Northeast 457 526 19,900  Level FlightAware ADS-B
Fri 06:22:37 AM 42.3950 -74.7330 61° Northeast 457 526 19,900  Level FlightAware ADS-B
Fri 06:23:27 AM 42.4390 -74.6260 61° Northeast 457 526 19,900 -6,439 Level FlightAware ADS-B
Fri 06:23:59 AM 42.4686 -74.5314 61° Northeast 331 381 11,100 -11,000 Descending Boston Center
Fri 06:24:15 AM 42.4711 -74.5144 79° East 348 400 11,100 -590 Level Boston Center
Fri 06:25:00 AM 42.5019 -74.4256 65° Northeast 290 334 10,500 -1,000 Descending Boston Center
Fri 06:25:15 AM 42.5044 -74.4003 82° East 309 356 10,100 -1,400 Descending Boston Center
Fri 06:26:00 AM 42.5119 -74.3158 83° East 295 339 9,100 -1,100 Descending Boston Center
Fri 06:26:15 AM 42.5122 -74.2992 89° East 293 337 9,000 -1,377 Descending Boston Center
Fri 06:27:01 AM 42.5222 -74.2092 81° East 288 331 7,700 -1,472 Descending Boston Center
Fri 06:28:01 AM 42.5300 -74.1025 84° East 284 327 6,400 -1,438 Descending Boston Center
Fri 06:29:02 AM 42.5481 -74.0042 76° East 274 315 4,800 -1,426 Descending Boston Center
Fri 06:30:03 AM 42.5661 -73.8975 77° East 269 310 3,500 -1,041 Descending Boston Center
Fri 06:31:03 AM 42.6086 -73.8392 45° Northeast 220 253 2,700 -744 Descending Boston Center
Fri 06:32:04 AM 42.6528 -73.8064 29° Northeast 161 185 2,000 -738 Descending Boston Center
Fri 06:33:05 AM 42.6861 -73.8042 North 111 128 1,200 -709 Descending Boston Center
Fri 06:34:11 AM 42.7278 -73.8081 356° North 126 145 500 -636 Descending Boston Center

Login

Don't have an account? Register now (free) for customized features, flight alerts, and more!